Time;durP1;ratioP1;P1;durP2;ratioP2;P2;SDS_P1;SDS_P2;PMS_P1;PMS_P2;Temp;Humidity;BMP_temperature;BMP_pressure;BME280_temperature;BME280_humidity;BME280_pressure;Samples;Min_cycle;Max_cycle;Signal;HPM_P1;HPM_P2
2021/12/11 00:00:24;;;;;;;51.35;26.15;;;;;;;;;;5072351;28;20600;-77
2021/12/11 00:03:02;;;;;;;38.22;22.95;;;;;;;;;;5072863;28;20172;-77
2021/12/11 00:05:28;;;;;;;32.45;20.95;;;;;;;;;;5072962;28;20630;-77
2021/12/11 00:07:54;;;;;;;37.97;20.83;;;;;;;;;;5072811;28;20547;-78
2021/12/11 00:10:29;;;;;;;35.78;21.73;;;;;;;;;;5072240;28;20189;-78
2021/12/11 00:12:57;;;;;;;30.27;20.13;;;;;;;;;;5072680;28;20514;-78
2021/12/11 00:15:25;;;;;;;43.35;21.60;;;;;;;;;;5054705;28;20190;-78
2021/12/11 00:17:56;;;;;;;34.95;21.65;;;;;;;;;;5072533;28;20205;-78
2021/12/11 00:20:24;;;;;;;45.97;22.77;;;;;;;;;;5072179;28;20212;-78
2021/12/11 00:22:52;;;;;;;41.72;22.10;;;;;;;;;;5072615;28;20230;-78
2021/12/11 00:25:18;;;;;;;39.22;24.67;;;;;;;;;;5072606;28;20169;-77
2021/12/11 00:27:46;;;;;;;47.22;27.33;;;;;;;;;;5072625;28;20177;-78
2021/12/11 00:30:19;;;;;;;44.38;25.08;;;;;;;;;;5072194;28;20173;-77
2021/12/11 00:32:45;;;;;;;42.03;24.10;;;;;;;;;;5072581;28;20284;-77
2021/12/11 00:35:14;;;;;;;41.08;25.63;;;;;;;;;;5054818;28;20178;-77
2021/12/11 00:37:40;;;;;;;43.03;25.50;;;;;;;;;;5072322;28;20203;-77
2021/12/11 00:40:06;;;;;;;48.78;30.13;;;;;;;;;;5072223;28;20168;-78
2021/12/11 00:42:33;;;;;;;38.22;24.27;;;;;;;;;;5074302;28;20517;-78
2021/12/11 00:45:00;;;;;;;47.75;26.48;;;;;;;;;;5076006;28;20174;-77
2021/12/11 00:47:27;;;;;;;36.38;23.10;;;;;;;;;;5075956;28;20179;-78
2021/12/11 00:50:00;;;;;;;43.13;24.25;;;;;;;;;;5075511;28;20215;-78
2021/12/11 00:52:46;;;;;;;39.45;26.75;;;;;;;;;;5075732;28;20264;-77
2021/12/11 00:55:20;;;;;;;45.75;26.70;;;;;;;;;;5075653;28;20238;-78
2021/12/11 00:57:47;;;;;;;47.83;29.30;;;;;;;;;;5075958;28;20547;-77
2021/12/11 01:00:16;;;;;;;48.22;26.95;;;;;;;;;;5057487;28;20202;-78
2021/12/11 01:02:44;;;;;;;52.97;29.98;;;;;;;;;;5075493;28;20169;-78
2021/12/11 01:05:10;;;;;;;54.92;28.80;;;;;;;;;;5075543;28;20170;-78
2021/12/11 01:07:37;;;;;;;63.65;31.05;;;;;;;;;;5075627;28;20196;-79
2021/12/11 01:10:09;;;;;;;52.10;28.27;;;;;;;;;;5075381;28;20189;-77
2021/12/11 01:12:43;;;;;;;62.30;31.77;;;;;;;;;;5075501;28;20181;-80
2021/12/11 01:15:13;;;;;;;43.00;21.27;;;;;;;;;;5075464;28;20245;-78
2021/12/11 01:17:57;;;;;;;56.20;31.98;;;;;;;;;;5075827;28;20287;-78
2021/12/11 01:20:34;;;;;;;58.42;34.28;;;;;;;;;;5075209;28;20189;-78
2021/12/11 01:23:01;;;;;;;61.30;30.23;;;;;;;;;;5075547;28;20505;-78
2021/12/11 01:25:28;;;;;;;61.55;32.53;;;;;;;;;;5057599;28;20251;-78
2021/12/11 01:27:56;;;;;;;55.92;32.90;;;;;;;;;;5075277;28;20175;-78
2021/12/11 01:30:25;;;;;;;67.90;34.95;;;;;;;;;;5074979;28;20196;-78
2021/12/11 01:32:51;;;;;;;60.30;31.90;;;;;;;;;;5074951;28;20216;-78
2021/12/11 01:35:17;;;;;;;74.28;34.85;;;;;;;;;;5075035;28;20184;-78
2021/12/11 01:37:45;;;;;;;56.60;30.98;;;;;;;;;;5074879;28;20198;-78
2021/12/11 01:40:13;;;;;;;68.18;32.17;;;;;;;;;;5074578;28;20626;-77
2021/12/11 01:42:40;;;;;;;50.42;25.52;;;;;;;;;;5074867;28;20182;-77
2021/12/11 01:45:09;;;;;;;61.28;32.50;;;;;;;;;;5074901;28;20175;-78
2021/12/11 01:47:37;;;;;;;57.55;32.33;;;;;;;;;;5074889;28;20249;-77
2021/12/11 01:50:14;;;;;;;63.38;31.35;;;;;;;;;;5056640;28;20239;-77
2021/12/11 01:52:44;;;;;;;68.75;33.40;;;;;;;;;;5056434;28;20669;-77
2021/12/11 01:55:19;;;;;;;60.05;32.13;;;;;;;;;;5074806;28;20186;-77
2021/12/11 01:57:47;;;;;;;68.15;31.63;;;;;;;;;;5074761;28;20208;-77
2021/12/11 02:00:18;;;;;;;67.22;32.00;;;;;;;;;;5074189;28;20299;-78
2021/12/11 02:02:47;;;;;;;63.42;28.70;;;;;;;;;;5074773;28;20537;-77
2021/12/11 02:05:14;;;;;;;73.85;32.92;;;;;;;;;;5074334;28;20173;-77
2021/12/11 02:07:45;;;;;;;69.80;36.10;;;;;;;;;;5074482;28;20170;-77
2021/12/11 02:10:20;;;;;;;70.57;33.70;;;;;;;;;;5074118;28;20178;-77
2021/12/11 02:12:46;;;;;;;74.70;36.72;;;;;;;;;;5074487;28;20232;-78
2021/12/11 02:15:15;;;;;;;73.45;35.83;;;;;;;;;;5074295;28;20540;-77
2021/12/11 02:17:44;;;;;;;71.60;34.22;;;;;;;;;;5056684;28;20586;-78
2021/12/11 02:20:12;;;;;;;70.13;34.20;;;;;;;;;;5074079;28;20198;-77
2021/12/11 02:22:43;;;;;;;73.60;33.33;;;;;;;;;;5074370;28;20622;-77
2021/12/11 02:25:13;;;;;;;77.47;36.20;;;;;;;;;;5074241;28;20179;-78
2021/12/11 02:27:51;;;;;;;76.13;37.75;;;;;;;;;;5074128;28;20182;-77
2021/12/11 02:30:23;;;;;;;68.22;35.53;;;;;;;;;;5073710;28;20194;-77
2021/12/11 02:33:07;;;;;;;71.93;35.53;;;;;;;;;;5073932;28;20199;-78
2021/12/11 02:35:48;;;;;;;74.85;36.72;;;;;;;;;;5073894;28;20172;-77
2021/12/11 02:38:43;;;;;;;77.50;37.65;;;;;;;;;;5073932;28;20279;-78
2021/12/11 02:41:21;;;;;;;79.40;37.50;;;;;;;;;;5037334;28;20205;-77
2021/12/11 02:43:49;;;;;;;76.50;36.35;;;;;;;;;;5073789;28;20173;-77
2021/12/11 02:46:18;;;;;;;82.18;37.28;;;;;;;;;;5055901;28;20541;-77
2021/12/11 02:48:47;;;;;;;78.13;38.75;;;;;;;;;;5073688;28;20183;-78
2021/12/11 02:51:21;;;;;;;79.20;37.42;;;;;;;;;;5073305;28;20197;-77
2021/12/11 02:54:01;;;;;;;73.25;35.78;;;;;;;;;;5073645;28;20591;-77
2021/12/11 02:56:31;;;;;;;81.50;38.50;;;;;;;;;;5073629;28;20184;-77
2021/12/11 02:58:59;;;;;;;81.40;36.92;;;;;;;;;;5073673;28;20207;-77
2021/12/11 03:01:31;;;;;;;77.35;35.95;;;;;;;;;;5073494;28;20199;-77
2021/12/11 03:04:16;;;;;;;92.35;39.47;;;;;;;;;;5073120;28;20549;-77
2021/12/11 03:06:45;;;;;;;68.95;36.15;;;;;;;;;;5073808;28;20167;-77
2021/12/11 03:09:14;;;;;;;65.47;34.45;;;;;;;;;;5073293;28;20173;-79
2021/12/11 03:11:40;;;;;;;65.65;37.28;;;;;;;;;;5073232;28;20603;-79
2021/12/11 03:14:12;;;;;;;70.60;36.78;;;;;;;;;;5073452;28;20191;-77
2021/12/11 03:16:38;;;;;;;74.47;36.08;;;;;;;;;;5073533;28;20506;-77
2021/12/11 03:19:06;;;;;;;72.07;36.20;;;;;;;;;;5073483;28;20242;-77
2021/12/11 03:21:32;;;;;;;79.45;38.05;;;;;;;;;;5073357;28;20195;-78
2021/12/11 03:23:58;;;;;;;79.60;37.58;;;;;;;;;;5055651;28;20539;-79
2021/12/11 03:26:25;;;;;;;71.78;36.90;;;;;;;;;;5073412;28;20180;-77
2021/12/11 03:28:51;;;;;;;72.93;39.33;;;;;;;;;;5073316;28;20182;-78
2021/12/11 03:31:17;;;;;;;77.75;37.85;;;;;;;;;;5054809;28;20573;-77
2021/12/11 03:33:46;;;;;;;73.53;37.83;;;;;;;;;;5055491;28;20187;-78
2021/12/11 03:36:13;;;;;;;73.88;36.40;;;;;;;;;;5073124;28;20576;-78
2021/12/11 03:38:41;;;;;;;78.75;37.88;;;;;;;;;;5073044;28;20248;-78
2021/12/11 03:41:07;;;;;;;78.05;34.83;;;;;;;;;;5072798;28;20563;-77
2021/12/11 03:43:34;;;;;;;73.80;35.97;;;;;;;;;;5072986;28;20167;-78
2021/12/11 03:46:03;;;;;;;64.00;35.35;;;;;;;;;;5073065;28;20175;-77
2021/12/11 03:48:33;;;;;;;70.82;35.35;;;;;;;;;;5073187;28;20176;-77
2021/12/11 03:51:00;;;;;;;71.10;34.92;;;;;;;;;;5072657;28;20200;-77
2021/12/11 03:53:26;;;;;;;81.80;33.67;;;;;;;;;;5072959;28;20172;-77
2021/12/11 03:55:55;;;;;;;81.63;36.90;;;;;;;;;;5072952;28;20241;-78
2021/12/11 03:58:21;;;;;;;82.18;37.33;;;;;;;;;;5072950;28;20619;-77
2021/12/11 04:01:00;;;;;;;71.70;35.67;;;;;;;;;;5072463;28;20205;-77
2021/12/11 04:03:30;;;;;;;78.07;36.08;;;;;;;;;;5072889;28;20514;-77
2021/12/11 04:05:58;;;;;;;71.18;35.17;;;;;;;;;;5072938;28;20175;-77
2021/12/11 04:08:26;;;;;;;83.00;37.95;;;;;;;;;;5072811;28;20176;-77
2021/12/11 04:10:53;;;;;;;75.60;40.67;;;;;;;;;;5072417;28;20261;-77
2021/12/11 04:13:19;;;;;;;72.45;35.63;;;;;;;;;;5072837;28;20180;-77
2021/12/11 04:15:46;;;;;;;74.10;36.63;;;;;;;;;;5073677;28;20182;-77
2021/12/11 04:18:13;;;;;;;74.80;36.00;;;;;;;;;;5076483;28;20201;-78
2021/12/11 04:20:40;;;;;;;66.78;34.25;;;;;;;;;;5058339;28;20192;-77
2021/12/11 04:23:07;;;;;;;71.13;36.25;;;;;;;;;;5058765;28;20171;-79
2021/12/11 04:25:33;;;;;;;66.85;34.72;;;;;;;;;;5076456;28;20268;-77
2021/12/11 04:28:00;;;;;;;65.80;33.70;;;;;;;;;;5058720;28;20695;-78
2021/12/11 04:30:29;;;;;;;63.30;34.50;;;;;;;;;;5057959;28;20245;-78
2021/12/11 04:32:57;;;;;;;60.55;32.10;;;;;;;;;;5076305;28;20195;-78
2021/12/11 04:35:27;;;;;;;61.58;33.65;;;;;;;;;;5076298;28;20559;-77
2021/12/11 04:37:54;;;;;;;65.03;32.88;;;;;;;;;;5076262;28;20194;-77
2021/12/11 04:40:26;;;;;;;58.72;34.15;;;;;;;;;;5075810;28;20199;-77
2021/12/11 04:42:59;;;;;;;64.97;33.65;;;;;;;;;;5076246;28;20169;-77
2021/12/11 04:45:33;;;;;;;62.80;33.83;;;;;;;;;;5076346;28;20203;-78
2021/12/11 04:48:09;;;;;;;61.60;32.53;;;;;;;;;;5076115;28;20173;-77
2021/12/11 04:50:44;;;;;;;67.63;36.85;;;;;;;;;;5075621;28;20202;-77
2021/12/11 04:53:28;;;;;;;61.15;34.38;;;;;;;;;;5059788;28;20188;-77
2021/12/11 05:11:36;;;;;;;57.10;33.17;;;;;;;;;;5075684;28;20608;-77
2021/12/11 05:14:04;;;;;;;62.30;32.95;;;;;;;;;;5057954;28;20202;-77
2021/12/11 05:16:30;;;;;;;60.25;32.35;;;;;;;;;;5075557;28;20183;-78
2021/12/11 05:18:57;;;;;;;56.63;30.38;;;;;;;;;;5057510;28;20205;-77
2021/12/11 05:21:23;;;;;;;59.00;29.38;;;;;;;;;;5057240;28;20210;-77
2021/12/11 05:23:51;;;;;;;67.88;32.05;;;;;;;;;;5075470;28;20747;-77
2021/12/11 05:26:18;;;;;;;65.80;31.90;;;;;;;;;;5075578;28;20175;-77
2021/12/11 05:28:45;;;;;;;62.63;30.98;;;;;;;;;;5074695;28;20187;-76
2021/12/11 05:31:11;;;;;;;57.60;29.95;;;;;;;;;;5075949;28;20219;-76
2021/12/11 05:33:38;;;;;;;56.83;31.52;;;;;;;;;;5075481;28;20624;-76
2021/12/11 05:36:06;;;;;;;62.65;31.75;;;;;;;;;;5075195;28;20271;-79
2021/12/11 05:38:33;;;;;;;62.60;32.25;;;;;;;;;;5075250;28;20203;-79
2021/12/11 05:41:00;;;;;;;66.47;31.65;;;;;;;;;;5074648;28;20195;-79
2021/12/11 05:43:26;;;;;;;57.38;30.30;;;;;;;;;;5075082;28;20172;-78
2021/12/11 05:45:52;;;;;;;66.15;32.88;;;;;;;;;;5075275;28;20175;-76
2021/12/11 05:48:18;;;;;;;53.35;29.08;;;;;;;;;;5075094;28;20264;-78
2021/12/11 05:50:49;;;;;;;56.80;30.02;;;;;;;;;;5074446;28;20211;-79
2021/12/11 05:53:16;;;;;;;54.15;28.83;;;;;;;;;;5074877;28;20234;-79
2021/12/11 05:55:45;;;;;;;58.10;29.80;;;;;;;;;;5074794;28;20175;-79
2021/12/11 05:58:13;;;;;;;57.22;28.70;;;;;;;;;;5074746;28;20293;-79
2021/12/11 06:00:45;;;;;;;54.47;28.60;;;;;;;;;;5056227;28;20229;-78
2021/12/11 06:03:12;;;;;;;47.95;27.20;;;;;;;;;;5056481;28;20270;-78
2021/12/11 06:05:38;;;;;;;49.65;25.75;;;;;;;;;;5074547;28;20812;-78
2021/12/11 06:08:05;;;;;;;60.38;27.88;;;;;;;;;;5074711;28;20539;-78
2021/12/11 06:10:31;;;;;;;55.60;28.88;;;;;;;;;;5074260;28;20275;-78
2021/12/11 06:12:58;;;;;;;54.78;27.48;;;;;;;;;;5074171;28;20176;-78
2021/12/11 06:15:24;;;;;;;48.70;28.40;;;;;;;;;;5074414;28;20187;-78
2021/12/11 06:17:50;;;;;;;45.05;25.83;;;;;;;;;;5074761;28;20205;-78
2021/12/11 06:20:18;;;;;;;48.40;25.77;;;;;;;;;;5074248;28;20539;-79
2021/12/11 06:22:45;;;;;;;43.58;26.60;;;;;;;;;;5074445;28;20175;-78
2021/12/11 06:25:13;;;;;;;53.63;26.75;;;;;;;;;;5074144;28;20199;-77
2021/12/11 06:27:40;;;;;;;49.45;28.15;;;;;;;;;;5074390;28;20258;-78
2021/12/11 06:30:06;;;;;;;50.00;26.42;;;;;;;;;;5073949;28;20173;-78
2021/12/11 06:32:32;;;;;;;49.38;27.30;;;;;;;;;;5074007;28;20189;-78
2021/12/11 06:35:00;;;;;;;54.00;26.88;;;;;;;;;;5074237;28;20180;-77
2021/12/11 06:37:26;;;;;;;53.85;28.98;;;;;;;;;;5073695;28;20227;-78
2021/12/11 06:39:53;;;;;;;48.15;25.17;;;;;;;;;;5073701;28;20183;-78
2021/12/11 06:42:20;;;;;;;54.97;28.58;;;;;;;;;;5073957;28;20599;-77
2021/12/11 06:44:47;;;;;;;46.72;26.80;;;;;;;;;;5073998;28;20176;-78
2021/12/11 06:47:14;;;;;;;47.72;26.23;;;;;;;;;;5073673;28;20187;-78
2021/12/11 06:49:41;;;;;;;59.53;27.20;;;;;;;;;;5073451;28;20168;-77
2021/12/11 06:52:27;;;;;;;51.33;26.90;;;;;;;;;;5073683;28;20318;-78
2021/12/11 06:54:54;;;;;;;49.92;25.40;;;;;;;;;;5073722;28;20175;-78
2021/12/11 06:57:20;;;;;;;53.58;28.48;;;;;;;;;;5038951;28;20184;-79
2021/12/11 06:59:47;;;;;;;47.35;26.40;;;;;;;;;;5073087;28;20188;-78
2021/12/11 07:02:13;;;;;;;49.22;25.60;;;;;;;;;;5055280;28;20719;-77
2021/12/11 07:04:39;;;;;;;58.88;27.05;;;;;;;;;;5073588;28;20586;-78
2021/12/11 07:07:05;;;;;;;47.50;25.33;;;;;;;;;;5073586;28;20180;-78
2021/12/11 07:09:31;;;;;;;54.25;28.42;;;;;;;;;;5073278;28;20407;-78
2021/12/11 07:11:58;;;;;;;49.55;26.23;;;;;;;;;;5073329;28;20542;-78
2021/12/11 07:14:26;;;;;;;51.17;26.55;;;;;;;;;;5073730;28;20188;-78
2021/12/11 07:16:52;;;;;;;47.60;27.25;;;;;;;;;;5073559;28;20253;-78
2021/12/11 07:19:19;;;;;;;50.55;27.40;;;;;;;;;;5073393;28;20196;-79
2021/12/11 07:21:50;;;;;;;54.97;28.02;;;;;;;;;;5073533;28;20219;-78
2021/12/11 07:24:18;;;;;;;51.80;26.60;;;;;;;;;;5073866;28;20214;-78
2021/12/11 07:26:44;;;;;;;51.60;26.63;;;;;;;;;;5073784;28;20169;-78
2021/12/11 07:29:13;;;;;;;50.55;26.17;;;;;;;;;;5073324;28;20261;-78
2021/12/11 07:31:40;;;;;;;53.63;26.15;;;;;;;;;;5072902;28;20582;-78
2021/12/11 07:34:06;;;;;;;46.30;25.55;;;;;;;;;;5073459;28;20256;-78
2021/12/11 07:36:33;;;;;;;49.95;27.45;;;;;;;;;;5055420;28;20189;-78
2021/12/11 07:39:01;;;;;;;49.92;26.20;;;;;;;;;;5073086;28;20201;-78
2021/12/11 07:41:27;;;;;;;53.33;28.05;;;;;;;;;;5072737;28;20185;-78
2021/12/11 07:43:53;;;;;;;52.63;27.30;;;;;;;;;;5073199;28;20268;-77
2021/12/11 07:46:23;;;;;;;55.72;27.67;;;;;;;;;;5073093;28;20172;-78
2021/12/11 07:48:49;;;;;;;55.10;28.58;;;;;;;;;;5072879;28;20199;-78
2021/12/11 07:51:16;;;;;;;59.72;31.13;;;;;;;;;;5074690;28;20203;-78
2021/12/11 07:53:43;;;;;;;48.42;25.90;;;;;;;;;;5076977;28;20545;-78
2021/12/11 07:56:09;;;;;;;57.40;27.42;;;;;;;;;;5076906;28;20800;-78
2021/12/11 07:58:35;;;;;;;52.45;27.23;;;;;;;;;;5076878;28;20211;-78
2021/12/11 08:01:03;;;;;;;51.92;26.02;;;;;;;;;;5076576;28;20191;-78
2021/12/11 08:03:29;;;;;;;51.40;26.23;;;;;;;;;;5077102;28;20693;-78
2021/12/11 08:05:55;;;;;;;54.63;28.13;;;;;;;;;;5076688;28;20206;-78
2021/12/11 08:08:22;;;;;;;49.17;26.52;;;;;;;;;;5076856;28;20422;-78
2021/12/11 08:10:50;;;;;;;64.65;29.23;;;;;;;;;;5076677;28;20229;-79
2021/12/11 08:13:17;;;;;;;61.65;27.63;;;;;;;;;;5076774;28;20179;-81
2021/12/11 08:15:43;;;;;;;50.15;27.02;;;;;;;;;;5076706;28;20183;-80
2021/12/11 08:18:10;;;;;;;55.15;27.98;;;;;;;;;;5058520;28;20202;-79
2021/12/11 08:20:37;;;;;;;54.65;28.05;;;;;;;;;;5076170;28;20200;-79
2021/12/11 08:23:04;;;;;;;54.33;26.13;;;;;;;;;;5076758;28;20184;-80
2021/12/11 08:25:30;;;;;;;50.75;24.95;;;;;;;;;;5076492;28;20661;-80
2021/12/11 08:27:57;;;;;;;59.67;27.83;;;;;;;;;;5076481;28;20205;-88
2021/12/11 08:30:24;;;;;;;55.75;27.90;;;;;;;;;;5058859;28;20200;-86
2021/12/11 08:32:51;;;;;;;53.38;27.73;;;;;;;;;;5061842;28;20631;-88
2021/12/11 08:35:17;;;;;;;57.55;29.15;;;;;;;;;;5059626;28;20277;-87
2021/12/11 08:37:45;;;;;;;58.78;28.25;;;;;;;;;;5058411;28;20207;-87
2021/12/11 08:40:19;;;;;;;60.20;28.05;;;;;;;;;;5058413;28;20187;-87
2021/12/11 08:42:46;;;;;;;66.93;30.60;;;;;;;;;;5076972;28;20694;-87
2021/12/11 08:45:20;;;;;;;59.33;28.15;;;;;;;;;;5076491;28;20172;-85
2021/12/11 08:47:47;;;;;;;56.35;27.52;;;;;;;;;;5060309;28;20165;-87
2021/12/11 08:50:14;;;;;;;55.28;26.65;;;;;;;;;;5058168;28;20204;-86
2021/12/11 08:52:41;;;;;;;62.80;29.27;;;;;;;;;;5058176;28;20191;-86
2021/12/11 08:55:10;;;;;;;60.63;30.15;;;;;;;;;;5076184;28;20204;-86
2021/12/11 08:57:39;;;;;;;60.40;28.13;;;;;;;;;;5058089;28;20204;-85
2021/12/11 09:00:26;;;;;;;58.28;27.83;;;;;;;;;;5075685;28;20656;-85
2021/12/11 09:02:58;;;;;;;63.92;29.27;;;;;;;;;;5039895;28;20650;-86
2021/12/11 09:05:27;;;;;;;57.53;28.80;;;;;;;;;;5096383;28;20267;-85
2021/12/11 09:07:58;;;;;;;63.33;27.90;;;;;;;;;;5098671;28;20179;-86
2021/12/11 09:10:30;;;;;;;62.05;28.58;;;;;;;;;;5079737;28;20211;-85
2021/12/11 09:12:59;;;;;;;58.08;27.95;;;;;;;;;;5097104;28;20184;-84
2021/12/11 09:15:27;;;;;;;53.03;25.25;;;;;;;;;;5097507;28;20174;-85
2021/12/11 09:18:00;;;;;;;71.10;29.17;;;;;;;;;;5095876;28;20204;-86
2021/12/11 09:20:26;;;;;;;59.42;28.60;;;;;;;;;;5095857;28;20270;-86
2021/12/11 09:23:06;;;;;;;54.22;28.38;;;;;;;;;;5074239;28;20180;-85
2021/12/11 09:25:37;;;;;;;68.03;31.40;;;;;;;;;;5074810;28;20169;-84
2021/12/11 09:28:08;;;;;;;60.25;28.85;;;;;;;;;;5078557;28;20294;-83
2021/12/11 09:30:37;;;;;;;52.78;28.35;;;;;;;;;;5079072;28;20204;-85
2021/12/11 09:33:09;;;;;;;56.08;28.80;;;;;;;;;;5081260;28;20195;-83
2021/12/11 09:35:35;;;;;;;55.50;27.50;;;;;;;;;;5077679;28;20307;-87
2021/12/11 09:38:05;;;;;;;49.87;23.63;;;;;;;;;;5076062;28;20225;-86
2021/12/11 09:40:37;;;;;;;52.25;26.80;;;;;;;;;;5073878;28;20488;-85
2021/12/11 09:43:03;;;;;;;49.25;24.52;;;;;;;;;;5075132;28;20614;-85
2021/12/11 09:45:38;;;;;;;46.07;25.33;;;;;;;;;;5073945;28;20247;-86
2021/12/11 09:48:07;;;;;;;47.10;25.25;;;;;;;;;;5074431;28;20411;-86
2021/12/11 09:50:44;;;;;;;43.47;23.73;;;;;;;;;;5074113;28;20232;-87
2021/12/11 09:53:12;;;;;;;52.67;25.98;;;;;;;;;;5075130;28;20188;-86
2021/12/11 09:55:39;;;;;;;49.10;29.63;;;;;;;;;;5073599;28;20553;-85
2021/12/11 09:58:09;;;;;;;49.63;26.02;;;;;;;;;;5075152;28;20291;-82
2021/12/11 10:00:35;;;;;;;61.88;28.92;;;;;;;;;;5075483;28;20192;-86
2021/12/11 10:03:02;;;;;;;50.77;25.90;;;;;;;;;;5079628;28;20268;-86
2021/12/11 10:05:32;;;;;;;58.45;27.05;;;;;;;;;;5081873;28;20410;-86
2021/12/11 10:08:27;;;;;;;51.97;25.52;;;;;;;;;;5081285;28;20186;-86
2021/12/11 10:10:58;;;;;;;45.92;25.67;;;;;;;;;;5077230;28;20219;-87
2021/12/11 10:13:26;;;;;;;43.42;24.80;;;;;;;;;;5079054;28;20169;-86
2021/12/11 10:15:53;;;;;;;44.53;23.48;;;;;;;;;;5078516;28;20209;-85
2021/12/11 10:18:20;;;;;;;39.25;23.20;;;;;;;;;;5079023;28;20204;-88
2021/12/11 10:20:46;;;;;;;41.20;23.17;;;;;;;;;;5079528;28;20560;-87
2021/12/11 10:23:17;;;;;;;40.67;21.40;;;;;;;;;;5078670;28;20171;-87
2021/12/11 10:25:44;;;;;;;44.15;25.77;;;;;;;;;;5074621;28;20466;-86
2021/12/11 10:28:12;;;;;;;38.80;19.95;;;;;;;;;;5074225;28;20187;-86
2021/12/11 10:30:41;;;;;;;37.75;21.75;;;;;;;;;;5072485;28;20698;-83
2021/12/11 10:33:15;;;;;;;41.45;21.80;;;;;;;;;;5073602;28;20784;-85
2021/12/11 10:35:42;;;;;;;34.10;20.65;;;;;;;;;;5074369;28;20198;-86
2021/12/11 10:38:09;;;;;;;40.08;20.73;;;;;;;;;;5074332;28;20626;-86
2021/12/11 10:40:44;;;;;;;35.42;19.60;;;;;;;;;;5074176;28;20215;-86
2021/12/11 10:43:15;;;;;;;33.25;19.33;;;;;;;;;;5074730;28;20556;-85
2021/12/11 10:45:42;;;;;;;35.13;20.20;;;;;;;;;;5076160;28;20168;-85
2021/12/11 10:48:11;;;;;;;41.00;22.60;;;;;;;;;;5094196;28;20173;-86
2021/12/11 10:50:40;;;;;;;33.38;16.60;;;;;;;;;;5093666;28;20192;-85
2021/12/11 10:53:08;;;;;;;32.65;17.52;;;;;;;;;;5081331;28;20181;-84
2021/12/11 10:55:35;;;;;;;31.08;16.58;;;;;;;;;;5075718;28;20635;-83
2021/12/11 10:58:03;;;;;;;33.25;16.33;;;;;;;;;;5094106;28;20302;-86
2021/12/11 11:00:31;;;;;;;36.88;17.88;;;;;;;;;;5075792;28;20656;-86
2021/12/11 11:02:58;;;;;;;32.60;16.90;;;;;;;;;;5094399;28;20218;-86
2021/12/11 11:05:26;;;;;;;40.13;17.63;;;;;;;;;;5075840;28;20230;-86
2021/12/11 11:07:52;;;;;;;33.08;17.38;;;;;;;;;;5094042;28;20191;-85
2021/12/11 11:10:24;;;;;;;32.10;16.65;;;;;;;;;;5099356;28;20704;-86
2021/12/11 11:12:50;;;;;;;31.75;17.92;;;;;;;;;;5093737;28;20277;-85
2021/12/11 11:15:20;;;;;;;37.50;18.98;;;;;;;;;;5093598;28;20168;-84
2021/12/11 11:17:46;;;;;;;42.35;17.50;;;;;;;;;;5093555;28;20592;-85
2021/12/11 11:20:14;;;;;;;33.10;15.43;;;;;;;;;;5093466;28;20172;-85
2021/12/11 11:22:41;;;;;;;25.08;14.30;;;;;;;;;;5093956;28;20172;-85
2021/12/11 11:25:10;;;;;;;27.17;15.18;;;;;;;;;;5093596;28;20164;-84
2021/12/11 11:27:37;;;;;;;28.33;13.73;;;;;;;;;;5076215;28;20231;-84
2021/12/11 11:30:05;;;;;;;23.58;14.45;;;;;;;;;;5094781;28;20171;-83
2021/12/11 11:32:32;;;;;;;20.50;13.90;;;;;;;;;;5093599;28;20191;-86
2021/12/11 11:35:02;;;;;;;25.20;13.07;;;;;;;;;;5097556;28;20180;-85
2021/12/11 11:37:28;;;;;;;20.60;11.80;;;;;;;;;;5093530;28;20209;-85
2021/12/11 11:39:55;;;;;;;22.95;12.82;;;;;;;;;;5058462;28;20687;-84
2021/12/11 11:42:21;;;;;;;24.63;12.05;;;;;;;;;;5059273;28;20263;-83
2021/12/11 11:44:48;;;;;;;22.95;11.18;;;;;;;;;;5093397;28;20705;-83
2021/12/11 11:47:15;;;;;;;15.90;10.60;;;;;;;;;;5075244;28;20180;-85
2021/12/11 11:49:42;;;;;;;21.10;11.93;;;;;;;;;;5079956;28;20289;-86
2021/12/11 11:52:13;;;;;;;18.92;10.93;;;;;;;;;;5074602;28;20579;-86
2021/12/11 11:54:43;;;;;;;25.35;11.02;;;;;;;;;;5072760;28;20181;-83
2021/12/11 11:57:15;;;;;;;18.10;11.10;;;;;;;;;;5072745;28;20219;-82
2021/12/11 11:59:41;;;;;;;13.07;9.05;;;;;;;;;;5072922;28;20187;-83
2021/12/11 12:02:10;;;;;;;17.85;10.15;;;;;;;;;;5072879;28;20212;-83
2021/12/11 12:04:36;;;;;;;20.00;10.65;;;;;;;;;;5071436;28;20743;-83
2021/12/11 12:07:05;;;;;;;17.33;10.15;;;;;;;;;;5071671;28;20276;-81
2021/12/11 12:09:32;;;;;;;21.70;9.85;;;;;;;;;;5072557;28;20246;-81
2021/12/11 12:11:59;;;;;;;13.70;7.60;;;;;;;;;;5072432;28;20197;-82
2021/12/11 12:14:30;;;;;;;17.77;8.57;;;;;;;;;;5072587;28;20206;-82
2021/12/11 12:16:56;;;;;;;11.32;6.00;;;;;;;;;;5072863;28;20559;-81
2021/12/11 12:19:23;;;;;;;6.20;3.45;;;;;;;;;;5054381;28;20215;-82
2021/12/11 12:21:52;;;;;;;10.25;6.13;;;;;;;;;;5072580;28;20196;-83
2021/12/11 12:24:23;;;;;;;9.15;5.95;;;;;;;;;;5072678;28;20177;-83
2021/12/11 12:26:50;;;;;;;14.93;6.13;;;;;;;;;;5072471;28;20219;-84
2021/12/11 12:29:17;;;;;;;13.90;6.38;;;;;;;;;;5072405;28;20567;-84
2021/12/11 12:31:51;;;;;;;12.35;5.85;;;;;;;;;;5072280;28;20223;-82
2021/12/11 12:34:20;;;;;;;12.15;6.32;;;;;;;;;;5072663;28;20601;-83
2021/12/11 12:36:47;;;;;;;11.23;6.65;;;;;;;;;;5073977;28;20184;-82
2021/12/11 12:39:14;;;;;;;19.35;7.70;;;;;;;;;;5076030;28;20200;-82
2021/12/11 12:41:42;;;;;;;10.65;5.43;;;;;;;;;;5074701;28;20681;-82
2021/12/11 12:44:19;;;;;;;8.77;6.38;;;;;;;;;;5076116;28;20598;-83
2021/12/11 12:46:48;;;;;;;11.40;7.60;;;;;;;;;;5076275;28;20170;-83
2021/12/11 12:49:15;;;;;;;12.98;6.53;;;;;;;;;;5075694;28;20179;-83
2021/12/11 12:51:42;;;;;;;11.85;6.53;;;;;;;;;;5075906;28;20266;-82
2021/12/11 12:54:11;;;;;;;11.30;7.43;;;;;;;;;;5075754;28;20184;-80
2021/12/11 12:56:39;;;;;;;22.17;6.97;;;;;;;;;;5075960;28;20228;-81
2021/12/11 12:59:08;;;;;;;11.85;7.43;;;;;;;;;;5075782;28;20202;-81
2021/12/11 13:01:38;;;;;;;15.48;7.32;;;;;;;;;;5075408;28;20230;-80
2021/12/11 13:04:06;;;;;;;16.75;7.70;;;;;;;;;;5074329;28;20534;-83
2021/12/11 13:06:34;;;;;;;15.00;6.55;;;;;;;;;;5075649;28;20249;-83
2021/12/11 13:09:14;;;;;;;12.30;6.57;;;;;;;;;;5075750;28;20226;-83
2021/12/11 13:11:46;;;;;;;7.13;5.30;;;;;;;;;;5075566;28;20216;-82
2021/12/11 13:14:12;;;;;;;20.08;6.97;;;;;;;;;;5075466;28;20621;-83
2021/12/11 13:16:40;;;;;;;10.48;6.35;;;;;;;;;;5075532;28;20624;-82
2021/12/11 13:19:06;;;;;;;16.70;6.43;;;;;;;;;;5075181;28;20205;-82
2021/12/11 13:21:38;;;;;;;11.33;6.20;;;;;;;;;;5075389;28;20190;-83
2021/12/11 13:24:05;;;;;;;12.45;6.55;;;;;;;;;;5075627;28;20458;-81
2021/12/11 13:26:32;;;;;;;14.52;6.72;;;;;;;;;;5075566;28;20165;-83
2021/12/11 13:29:00;;;;;;;23.65;7.05;;;;;;;;;;5075326;28;20594;-81
2021/12/11 13:31:32;;;;;;;17.10;6.45;;;;;;;;;;5074807;28;20213;-83
2021/12/11 13:33:58;;;;;;;17.35;6.53;;;;;;;;;;5075385;28;20196;-83
2021/12/11 13:36:25;;;;;;;7.90;5.82;;;;;;;;;;5075154;28;20633;-82
2021/12/11 13:38:52;;;;;;;11.02;6.15;;;;;;;;;;5075145;28;20299;-82
2021/12/11 13:41:20;;;;;;;8.88;7.82;;;;;;;;;;5074751;28;20599;-81
2021/12/11 13:43:46;;;;;;;11.85;7.03;;;;;;;;;;5075066;28;20173;-82
2021/12/11 13:46:12;;;;;;;14.98;7.45;;;;;;;;;;5075184;28;20176;-82
2021/12/11 13:48:39;;;;;;;14.43;6.53;;;;;;;;;;5074078;28;20173;-82
2021/12/11 13:51:13;;;;;;;9.35;6.88;;;;;;;;;;5074540;28;20215;-83
2021/12/11 13:53:40;;;;;;;19.52;7.88;;;;;;;;;;5074790;28;20534;-81
2021/12/11 13:56:11;;;;;;;14.25;7.10;;;;;;;;;;5074926;28;20200;-82
2021/12/11 13:58:37;;;;;;;14.10;6.20;;;;;;;;;;5074541;28;20202;-81
2021/12/11 14:01:06;;;;;;;14.57;7.00;;;;;;;;;;5074381;28;20196;-82
2021/12/11 14:03:32;;;;;;;15.77;6.90;;;;;;;;;;5074712;28;20170;-82
2021/12/11 14:06:02;;;;;;;17.35;7.35;;;;;;;;;;5074617;28;20629;-84
2021/12/11 14:08:28;;;;;;;13.88;7.40;;;;;;;;;;5074484;28;20522;-82
2021/12/11 14:10:56;;;;;;;10.40;6.10;;;;;;;;;;5074003;28;20216;-82
2021/12/11 14:13:22;;;;;;;14.43;7.10;;;;;;;;;;5074373;28;20169;-83
2021/12/11 14:15:49;;;;;;;11.60;6.88;;;;;;;;;;5074328;28;20598;-82
2021/12/11 14:18:16;;;;;;;10.43;6.07;;;;;;;;;;5074383;28;20284;-82
2021/12/11 14:20:43;;;;;;;14.90;7.32;;;;;;;;;;5073741;28;20184;-83
2021/12/11 14:23:11;;;;;;;12.32;6.82;;;;;;;;;;5074282;28;20621;-82
2021/12/11 14:25:37;;;;;;;10.60;6.72;;;;;;;;;;5074297;28;20735;-84
2021/12/11 14:28:05;;;;;;;9.20;5.82;;;;;;;;;;5072714;28;20181;-81
2021/12/11 14:30:32;;;;;;;12.68;6.82;;;;;;;;;;5073680;28;20212;-82
2021/12/11 14:32:59;;;;;;;12.35;7.18;;;;;;;;;;5073869;28;20250;-83
2021/12/11 14:35:26;;;;;;;14.60;6.97;;;;;;;;;;5074093;28;20182;-81
2021/12/11 14:37:53;;;;;;;10.32;6.22;;;;;;;;;;5072669;28;20570;-82
2021/12/11 14:40:21;;;;;;;12.80;7.03;;;;;;;;;;5073547;28;20188;-83
2021/12/11 14:42:47;;;;;;;13.30;7.13;;;;;;;;;;5073793;28;20561;-81